Time;durP1;ratioP1;P1;durP2;ratioP2;P2;SDS_P1;SDS_P2;PMS_P1;PMS_P2;Temp;Humidity;BMP_temperature;BMP_pressure;BME280_temperature;BME280_humidity;BME280_pressure;Samples;Min_cycle;Max_cycle;Signal;HPM_P1;HPM_P2
2022/06/20 00:01:16;;;;;;;2.77;2.57;;;;;;;18.48;70.45;94952.31;5116694;28;20439;-79
2022/06/20 00:03:48;;;;;;;3.80;3.40;;;;;;;18.46;70.78;94948.19;5116248;28;20446;-80
2022/06/20 00:06:16;;;;;;;4.13;3.17;;;;;;;18.38;70.98;94949.09;5116766;28;20929;-79
2022/06/20 00:08:44;;;;;;;3.33;3.03;;;;;;;18.35;71.30;94948.63;5116687;28;20444;-79
2022/06/20 00:11:14;;;;;;;6.17;4.30;;;;;;;18.32;71.15;94941.00;5116426;28;20443;-79
2022/06/20 00:13:46;;;;;;;3.87;3.30;;;;;;;18.33;71.29;94943.47;5116321;28;20432;-79
2022/06/20 00:16:15;;;;;;;3.50;3.30;;;;;;;18.32;71.39;94947.16;5116247;28;20444;-79
2022/06/20 00:18:42;;;;;;;3.33;3.03;;;;;;;18.27;71.02;94950.34;5115994;28;20489;-79
2022/06/20 00:21:12;;;;;;;4.03;2.97;;;;;;;18.23;71.22;94954.34;5116373;28;21060;-79
2022/06/20 00:23:39;;;;;;;3.37;3.10;;;;;;;18.06;72.23;94960.75;5116202;28;20442;-80
2022/06/20 00:26:06;;;;;;;4.10;3.70;;;;;;;18.03;72.37;94950.47;5116024;28;20450;-79
2022/06/20 00:28:33;;;;;;;3.67;3.37;;;;;;;18.05;72.70;94950.28;5115851;28;20507;-79
2022/06/20 00:31:01;;;;;;;4.23;3.93;;;;;;;18.09;72.84;94948.94;5115747;28;20436;-79
2022/06/20 00:33:28;;;;;;;3.83;3.40;;;;;;;17.98;72.90;94944.84;5115998;28;20424;-79
2022/06/20 00:35:55;;;;;;;3.30;3.00;;;;;;;18.03;72.86;94952.28;5116153;28;20444;-79
2022/06/20 00:38:23;;;;;;;3.40;3.20;;;;;;;18.03;72.86;94960.25;5080182;28;20432;-80
2022/06/20 00:40:53;;;;;;;3.97;3.13;;;;;;;18.03;73.04;94957.59;5116013;28;20486;-79
2022/06/20 00:43:24;;;;;;;8.07;3.60;;;;;;;17.99;72.74;94956.31;5114688;28;20435;-79
2022/06/20 00:45:54;;;;;;;3.40;3.10;;;;;;;17.87;73.17;94959.31;5079573;28;20447;-79
2022/06/20 00:48:26;;;;;;;4.13;3.27;;;;;;;17.87;72.94;94951.38;5115656;28;20438;-79
2022/06/20 00:51:00;;;;;;;4.33;4.00;;;;;;;17.93;73.08;94945.38;5115318;28;20458;-80
2022/06/20 00:53:33;;;;;;;3.53;3.23;;;;;;;17.88;72.24;94954.84;5115241;28;20451;-79
2022/06/20 00:56:05;;;;;;;3.50;3.20;;;;;;;17.86;72.29;94954.19;5115458;28;20496;-80
2022/06/20 00:58:37;;;;;;;3.40;3.10;;;;;;;17.83;71.97;94952.72;5115273;28;20442;-79
2022/06/20 01:01:04;;;;;;;3.30;3.10;;;;;;;17.79;71.78;94956.72;5115243;28;20793;-79
2022/06/20 01:03:38;;;;;;;3.63;3.43;;;;;;;17.74;71.66;94964.38;5115131;28;20921;-79
2022/06/20 01:06:09;;;;;;;3.43;3.17;;;;;;;17.70;72.16;94955.09;5115017;28;20440;-79
2022/06/20 01:08:42;;;;;;;3.57;3.30;;;;;;;17.76;71.99;94949.09;5114968;28;20447;-79
2022/06/20 01:11:17;;;;;;;3.87;3.47;;;;;;;17.77;71.44;94947.28;5115040;28;20510;-79
2022/06/20 01:13:45;;;;;;;6.53;3.23;;;;;;;17.79;71.70;94938.13;5115316;27;20446;-79
2022/06/20 01:16:24;;;;;;;7.50;3.40;;;;;;;17.79;71.92;94934.66;5114802;28;20937;-80
2022/06/20 01:18:54;;;;;;;3.50;3.20;;;;;;;17.74;71.77;94929.88;5114843;28;20502;-79
2022/06/20 01:21:22;;;;;;;3.93;3.03;;;;;;;17.71;71.36;94927.56;5114990;28;20446;-79
2022/06/20 01:24:02;;;;;;;3.20;2.90;;;;;;;17.61;71.89;94926.88;5114676;28;20963;-79
2022/06/20 01:26:42;;;;;;;3.00;2.80;;;;;;;17.57;72.14;94926.41;5114820;28;20450;-79
2022/06/20 01:29:12;;;;;;;4.60;3.37;;;;;;;17.41;72.68;94921.19;5114595;28;20449;-79
2022/06/20 01:31:43;;;;;;;4.60;3.50;;;;;;;17.35;72.86;94927.16;5115604;28;20442;-79
2022/06/20 01:34:14;;;;;;;3.80;3.50;;;;;;;17.31;73.21;94926.66;5114365;28;20986;-79
2022/06/20 01:39:27;;;;;;;3.90;3.60;;;;;;;17.16;72.22;94933.69;5114261;28;20488;-79
2022/06/20 01:44:43;;;;;;;3.57;3.27;;;;;;;17.09;73.18;94942.47;5114400;28;20431;-79
2022/06/20 01:47:11;;;;;;;4.03;3.73;;;;;;;16.96;74.53;94935.03;5114285;28;20453;-79
2022/06/20 01:49:40;;;;;;;3.73;3.43;;;;;;;16.88;75.18;94924.44;5114244;28;20454;-79
2022/06/20 01:52:13;;;;;;;5.40;3.30;;;;;;;16.98;75.32;94930.38;5113919;28;20449;-79
2022/06/20 01:54:45;;;;;;;4.57;3.90;;;;;;;16.90;76.49;94933.88;5114090;28;20492;-79
2022/06/20 01:57:13;;;;;;;7.53;3.60;;;;;;;16.80;76.78;94932.41;5114037;28;20447;-80
2022/06/20 01:59:46;;;;;;;5.20;3.50;;;;;;;16.79;77.58;94936.88;5113767;28;20483;-79
2022/06/20 02:02:14;;;;;;;4.20;3.90;;;;;;;16.82;77.33;94933.06;5113718;28;20449;-79
2022/06/20 02:04:41;;;;;;;4.17;3.77;;;;;;;16.73;77.55;94930.41;5114053;28;20446;-80
2022/06/20 02:07:11;;;;;;;4.40;3.60;;;;;;;16.71;77.68;94931.56;5114028;28;20440;-79
2022/06/20 02:09:41;;;;;;;3.37;3.17;;;;;;;16.74;77.11;94923.28;5095280;28;20480;-79
2022/06/20 02:12:15;;;;;;;4.60;4.10;;;;;;;16.78;77.33;94934.41;5113889;28;20447;-79
2022/06/20 02:14:47;;;;;;;3.90;3.60;;;;;;;16.81;77.03;94934.06;5113724;28;21142;-79
2022/06/20 02:17:18;;;;;;;4.10;3.80;;;;;;;16.87;77.16;94936.88;5114345;28;20449;-79
2022/06/20 02:19:49;;;;;;;4.10;3.70;;;;;;;16.77;77.33;94938.00;5114021;28;20481;-79
2022/06/20 02:22:18;;;;;;;5.00;4.07;;;;;;;16.79;77.67;94939.53;5114036;28;20475;-80
2022/06/20 02:24:49;;;;;;;5.40;4.00;;;;;;;16.73;77.93;94930.41;5113635;28;20451;-79
2022/06/20 02:27:23;;;;;;;5.00;4.60;;;;;;;16.67;78.42;94932.91;5113331;28;20439;-79
2022/06/20 02:29:51;;;;;;;4.30;3.93;;;;;;;16.76;78.31;94941.66;5113630;28;20426;-79
2022/06/20 02:32:21;;;;;;;4.03;3.70;;;;;;;16.83;77.75;94932.91;5113620;28;20803;-79
2022/06/20 02:34:50;;;;;;;3.77;3.57;;;;;;;16.87;77.74;94939.53;5077555;28;20446;-79
2022/06/20 02:37:23;;;;;;;4.83;4.43;;;;;;;16.87;77.40;94933.41;5113617;28;20438;-79
2022/06/20 02:39:52;;;;;;;14.57;6.73;;;;;;;16.84;76.98;94931.06;5113257;28;20498;-79
2022/06/20 02:42:25;;;;;;;4.20;3.90;;;;;;;16.85;76.87;94932.72;5113696;28;20954;-79
2022/06/20 02:44:54;;;;;;;3.30;3.10;;;;;;;16.84;77.24;94931.06;5113383;28;20505;-79
2022/06/20 02:47:24;;;;;;;3.63;3.30;;;;;;;16.81;76.95;94937.53;5113272;28;20941;-79
2022/06/20 02:49:54;;;;;;;6.23;3.87;;;;;;;16.81;76.95;94934.91;5113325;28;20506;-79
2022/06/20 02:52:26;;;;;;;4.20;3.80;;;;;;;16.76;76.52;94928.41;5113246;28;20484;-79
2022/06/20 02:54:54;;;;;;;4.33;4.03;;;;;;;16.69;77.51;94925.59;5113212;28;20441;-79
2022/06/20 02:57:31;;;;;;;4.23;3.93;;;;;;;16.70;77.04;94921.97;5113167;28;20462;-79
2022/06/20 03:00:02;;;;;;;4.10;3.80;;;;;;;16.57;77.88;94922.44;5113273;28;20489;-79
2022/06/20 03:02:33;;;;;;;4.50;4.10;;;;;;;16.62;77.82;94928.06;5113271;28;20447;-79
2022/06/20 03:05:01;;;;;;;4.33;4.03;;;;;;;16.64;77.29;94926.06;5112599;28;20443;-79
2022/06/20 03:07:32;;;;;;;4.23;3.87;;;;;;;16.61;77.31;94917.63;5112803;28;20935;-79
2022/06/20 03:10:06;;;;;;;3.97;3.67;;;;;;;16.54;77.42;94912.19;5112755;28;20443;-79
2022/06/20 03:12:33;;;;;;;3.97;3.67;;;;;;;16.57;77.67;94921.63;5113202;28;20438;-79
2022/06/20 03:15:02;;;;;;;5.17;4.70;;;;;;;16.62;77.64;94924.59;5113138;28;20468;-79
2022/06/20 03:17:29;;;;;;;4.20;3.80;;;;;;;16.66;77.27;94926.78;5112709;28;20455;-79
2022/06/20 03:20:00;;;;;;;4.17;3.87;;;;;;;16.67;77.42;94923.13;5113069;28;20471;-79
2022/06/20 03:22:33;;;;;;;4.13;3.73;;;;;;;16.69;77.15;94920.31;5112813;28;20451;-79
2022/06/20 03:25:00;;;;;;;7.50;4.90;;;;;;;16.65;76.76;94918.97;5112906;28;20500;-79
2022/06/20 03:27:29;;;;;;;3.93;3.73;;;;;;;16.78;76.07;94918.50;5112716;28;20617;-79
2022/06/20 03:30:02;;;;;;;6.70;3.90;;;;;;;16.95;75.60;94910.34;5112808;28;20936;-79
2022/06/20 03:32:30;;;;;;;4.97;3.80;;;;;;;17.17;75.16;94915.94;5112915;28;20454;-79
2022/06/20 03:34:57;;;;;;;4.03;3.70;;;;;;;17.50;73.70;94920.13;5112774;28;20449;-79
2022/06/20 03:37:24;;;;;;;3.97;3.57;;;;;;;17.79;72.34;94921.38;5112719;28;20443;-79
2022/06/20 03:39:51;;;;;;;9.97;4.87;;;;;;;18.10;71.45;94922.19;5112486;28;20522;-79
2022/06/20 03:42:19;;;;;;;7.10;3.87;;;;;;;18.43;69.79;94922.81;5112699;28;20440;-79
2022/06/20 03:44:50;;;;;;;4.60;4.10;;;;;;;18.88;68.41;94923.81;5112696;28;20448;-79
2022/06/20 03:47:22;;;;;;;4.17;3.77;;;;;;;19.28;66.92;94921.75;5112882;28;20496;-79
2022/06/20 03:49:56;;;;;;;4.10;3.57;;;;;;;19.67;65.28;94927.69;5093415;28;20440;-79
2022/06/20 03:52:25;;;;;;;3.20;3.00;;;;;;;20.06;63.73;94926.53;5112581;28;20917;-79
2022/06/20 03:54:59;;;;;;;3.73;3.43;;;;;;;20.51;62.48;94941.38;5112510;28;20500;-79
2022/06/20 03:57:31;;;;;;;4.00;3.70;;;;;;;20.91;60.34;94939.09;5112251;28;20933;-79
2022/06/20 04:00:03;;;;;;;4.57;4.17;;;;;;;21.17;59.52;94930.47;5112020;28;20558;-80
2022/06/20 04:02:35;;;;;;;3.90;3.60;;;;;;;21.47;58.63;94939.97;5112959;28;20439;-79
2022/06/20 04:05:08;;;;;;;5.87;4.70;;;;;;;21.84;57.65;94943.25;5112817;28;20463;-79
2022/06/20 04:07:41;;;;;;;5.77;3.33;;;;;;;22.14;56.77;94943.81;5076940;28;20436;-79
2022/06/20 04:13:05;;;;;;;7.73;3.77;;;;;;;22.70;54.33;94933.69;5112531;28;20542;-79
2022/06/20 04:15:38;;;;;;;3.57;3.27;;;;;;;22.85;53.47;94929.03;5112359;28;20436;-79
2022/06/20 04:18:30;;;;;;;3.90;3.60;;;;;;;23.07;53.21;94940.34;5113760;28;20436;-79
2022/06/20 04:21:09;;;;;;;3.80;3.50;;;;;;;23.31;52.40;94925.50;5115971;28;20842;-80
2022/06/20 04:23:44;;;;;;;6.03;3.60;;;;;;;23.49;51.87;94928.38;5116098;28;20957;-79
2022/06/20 04:26:18;;;;;;;3.60;3.30;;;;;;;23.82;50.65;94926.69;5115776;28;20446;-78
2022/06/20 04:28:52;;;;;;;3.33;3.03;;;;;;;24.04;49.90;94920.84;5116029;28;20435;-79
2022/06/20 04:31:26;;;;;;;4.30;3.37;;;;;;;24.23;49.67;94923.63;5116033;28;20488;-80
2022/06/20 04:33:58;;;;;;;5.97;3.80;;;;;;;24.33;48.18;94921.34;5115608;27;20802;-79
2022/06/20 04:36:37;;;;;;;3.40;3.10;;;;;;;24.37;48.40;94919.88;5115739;28;20439;-79
2022/06/20 04:39:14;;;;;;;3.80;3.50;;;;;;;24.54;48.12;94921.00;5079735;28;20423;-80
2022/06/20 04:41:45;;;;;;;3.80;3.50;;;;;;;24.73;47.55;94918.44;5115330;28;20491;-80
2022/06/20 04:44:19;;;;;;;3.90;3.60;;;;;;;24.94;46.97;94918.09;5115400;28;20455;-80
2022/06/20 04:46:51;;;;;;;4.40;3.83;;;;;;;25.18;46.43;94913.81;5115671;28;20440;-80
2022/06/20 04:49:18;;;;;;;5.23;3.13;;;;;;;25.44;46.25;94910.84;5115497;28;20945;-80
2022/06/20 04:51:49;;;;;;;3.70;3.37;;;;;;;25.55;45.26;94901.25;5079662;28;20450;-80
2022/06/20 04:54:20;;;;;;;6.80;3.47;;;;;;;25.79;45.17;94911.16;5115705;28;20443;-79
2022/06/20 04:56:48;;;;;;;5.30;3.77;;;;;;;26.04;45.05;94907.59;5115551;28;20458;-80
2022/06/20 04:59:19;;;;;;;3.80;3.50;;;;;;;26.17;44.16;94904.72;5115223;28;20798;-80
2022/06/20 05:01:46;;;;;;;3.80;3.50;;;;;;;26.29;43.83;94894.81;5114834;28;20844;-80
2022/06/20 05:04:25;;;;;;;4.70;3.57;;;;;;;26.37;43.94;94888.34;5096302;28;20439;-80
2022/06/20 05:06:54;;;;;;;3.60;3.30;;;;;;;26.44;43.78;94906.03;5115288;28;20435;-80
2022/06/20 05:09:29;;;;;;;3.67;3.03;;;;;;;26.60;43.60;94903.75;5115100;28;20465;-80
2022/06/20 05:12:04;;;;;;;5.00;3.77;;;;;;;26.81;43.35;94897.84;5114871;28;20447;-80
2022/06/20 05:14:35;;;;;;;4.30;3.90;;;;;;;26.85;42.68;94899.84;5115157;28;20443;-80
2022/06/20 05:17:05;;;;;;;4.80;3.00;;;;;;;26.92;42.85;94901.66;5115053;28;20447;-80
2022/06/20 05:19:38;;;;;;;3.13;2.93;;;;;;;27.00;42.60;94901.34;5114855;28;20526;-80
2022/06/20 05:22:14;;;;;;;4.30;3.87;;;;;;;27.14;43.20;94906.25;5114733;28;20479;-80
2022/06/20 05:24:43;;;;;;;6.90;3.90;;;;;;;27.51;42.63;94903.38;5114797;28;20451;-81
2022/06/20 05:27:15;;;;;;;5.27;4.00;;;;;;;27.26;43.75;94911.69;5079197;28;20530;-80
2022/06/20 05:29:44;;;;;;;5.53;3.90;;;;;;;27.33;43.41;94919.66;5114626;28;20454;-80
2022/06/20 05:32:16;;;;;;;6.07;3.57;;;;;;;27.50;44.55;94909.81;5114839;28;20447;-80
2022/06/20 05:34:50;;;;;;;9.83;3.93;;;;;;;27.43;43.44;94911.78;5114372;28;20444;-80
2022/06/20 05:37:26;;;;;;;4.30;3.90;;;;;;;26.96;44.11;94910.91;5114956;28;20458;-80
2022/06/20 05:39:56;;;;;;;6.50;4.30;;;;;;;26.69;45.95;94913.16;5114709;28;20482;-80
2022/06/20 05:42:23;;;;;;;5.17;4.17;;;;;;;26.56;46.50;94898.00;5114626;28;20471;-80
2022/06/20 05:44:50;;;;;;;7.57;4.30;;;;;;;25.73;48.07;94901.28;5114445;28;20435;-81
2022/06/20 05:47:23;;;;;;;4.20;3.80;;;;;;;25.44;48.75;94899.28;5114120;28;20443;-81
2022/06/20 05:49:54;;;;;;;9.00;4.40;;;;;;;25.45;49.47;94895.56;5114140;28;20804;-80
2022/06/20 05:52:27;;;;;;;10.03;4.70;;;;;;;25.67;48.72;94899.50;5095358;28;20434;-80
2022/06/20 05:54:58;;;;;;;4.87;4.47;;;;;;;25.31;49.61;94893.00;5114301;28;20443;-80
2022/06/20 05:57:28;;;;;;;12.70;5.00;;;;;;;25.49;49.53;94899.47;5114088;28;20444;-80
2022/06/20 05:59:59;;;;;;;4.40;4.00;;;;;;;25.92;48.39;94892.19;5113988;28;20440;-80
2022/06/20 06:02:30;;;;;;;6.17;4.57;;;;;;;26.29;47.09;94900.19;5114120;28;20479;-80
2022/06/20 06:05:05;;;;;;;5.07;4.60;;;;;;;26.31;47.02;94895.44;5114123;28;20450;-80
2022/06/20 06:07:40;;;;;;;5.50;4.60;;;;;;;26.28;46.31;94897.75;5113914;28;20537;-80
2022/06/20 06:10:24;;;;;;;6.03;4.50;;;;;;;26.49;45.93;94898.09;5113888;28;20439;-80
2022/06/20 06:12:56;;;;;;;12.87;4.63;;;;;;;26.75;45.92;94896.91;5113771;28;20447;-80
2022/06/20 06:15:33;;;;;;;8.50;4.13;;;;;;;26.62;45.10;94890.91;5114105;28;20436;-80
2022/06/20 06:18:04;;;;;;;7.00;4.80;;;;;;;27.03;45.04;94893.59;5113757;28;20435;-80
2022/06/20 06:20:33;;;;;;;6.57;4.33;;;;;;;27.51;42.67;94887.19;5113498;28;20451;-80
2022/06/20 06:23:06;;;;;;;4.47;4.07;;;;;;;27.99;42.63;94886.09;5077948;28;20458;-81
2022/06/20 06:25:37;;;;;;;9.17;5.10;;;;;;;28.32;42.12;94890.84;5113610;28;20817;-81
2022/06/20 06:28:07;;;;;;;7.73;3.60;;;;;;;28.50;41.47;94887.16;5113370;28;20490;-80
2022/06/20 06:30:38;;;;;;;6.53;4.37;;;;;;;28.46;41.29;94886.81;5113726;28;20446;-80
2022/06/20 06:33:13;;;;;;;4.17;3.77;;;;;;;28.64;40.12;94883.91;5113506;28;20439;-80
2022/06/20 06:35:44;;;;;;;4.70;4.20;;;;;;;28.99;40.31;94881.06;5113692;28;20527;-80
2022/06/20 06:38:18;;;;;;;5.37;4.00;;;;;;;29.03;40.13;94877.84;5114039;28;20447;-80
2022/06/20 06:40:49;;;;;;;4.20;3.73;;;;;;;28.98;40.39;94868.59;5112960;28;20489;-80
2022/06/20 06:43:20;;;;;;;8.00;3.70;;;;;;;29.13;39.58;94870.72;5113173;28;20933;-80
2022/06/20 06:45:49;;;;;;;3.70;3.40;;;;;;;28.41;39.28;94867.00;5113344;28;20447;-80
2022/06/20 06:48:20;;;;;;;4.73;3.83;;;;;;;28.61;41.55;94857.38;5113680;28;20458;-80
2022/06/20 06:50:50;;;;;;;8.40;3.40;;;;;;;28.63;40.36;94859.88;5113387;28;20423;-80
2022/06/20 06:53:24;;;;;;;4.77;3.60;;;;;;;28.37;39.95;94856.69;5113205;28;20431;-80
2022/06/20 06:55:56;;;;;;;6.23;4.10;;;;;;;27.64;40.31;94846.53;5113239;28;20443;-80
2022/06/20 06:58:28;;;;;;;3.70;3.50;;;;;;;27.28;41.00;94846.78;5113156;28;20451;-80
2022/06/20 07:01:01;;;;;;;3.87;3.60;;;;;;;27.01;40.66;94847.22;5113009;28;20486;-80
2022/06/20 07:03:35;;;;;;;4.03;3.70;;;;;;;27.17;40.93;94838.44;5112933;28;20447;-80
2022/06/20 07:06:06;;;;;;;3.83;3.53;;;;;;;27.46;42.66;94828.59;5113337;28;20797;-80
2022/06/20 07:08:41;;;;;;;5.53;3.50;;;;;;;27.35;43.01;94825.91;5113049;28;20436;-80
2022/06/20 07:11:13;;;;;;;9.30;3.90;;;;;;;27.52;42.12;94821.44;5113525;28;20499;-79
2022/06/20 07:13:46;;;;;;;3.83;3.37;;;;;;;27.98;41.73;94822.41;5113051;28;20455;-80
2022/06/20 07:16:19;;;;;;;9.30;3.47;;;;;;;28.31;38.60;94819.03;5113022;28;20926;-80
2022/06/20 07:18:50;;;;;;;3.40;2.70;;;;;;;28.49;38.84;94820.72;5077330;28;20443;-80
2022/06/20 07:21:19;;;;;;;4.27;3.10;;;;;;;28.51;38.25;94818.59;5112854;28;20490;-80
2022/06/20 07:23:50;;;;;;;5.20;3.40;;;;;;;28.51;39.80;94808.59;5112859;28;20856;-80
2022/06/20 07:26:22;;;;;;;7.93;3.50;;;;;;;28.21;39.76;94813.41;5112715;28;20847;-80
2022/06/20 07:28:54;;;;;;;4.50;4.10;;;;;;;28.37;40.08;94812.69;5112690;28;20860;-80
2022/06/20 07:31:26;;;;;;;4.00;3.60;;;;;;;28.31;40.33;94808.22;5112773;28;20450;-80
2022/06/20 07:33:57;;;;;;;4.30;3.33;;;;;;;28.56;39.50;94805.16;5112736;28;20809;-80
2022/06/20 07:36:28;;;;;;;3.10;2.90;;;;;;;28.80;39.52;94806.66;5113171;28;20446;-80
2022/06/20 07:39:00;;;;;;;8.83;3.10;;;;;;;28.90;40.02;94814.13;5077262;28;20492;-81
2022/06/20 07:41:35;;;;;;;8.17;3.40;;;;;;;27.85;39.51;94807.34;5112508;28;20483;-80
2022/06/20 07:44:06;;;;;;;4.77;4.13;;;;;;;27.87;41.80;94809.78;5112854;28;20439;-80
2022/06/20 07:46:38;;;;;;;4.57;4.20;;;;;;;28.27;42.22;94817.88;5078329;28;20448;-80
2022/06/20 07:49:11;;;;;;;5.10;3.13;;;;;;;28.67;42.67;94809.69;5112685;28;20802;-81
2022/06/20 07:51:43;;;;;;;4.47;3.40;;;;;;;28.81;41.54;94810.19;5113092;28;20474;-80
2022/06/20 07:54:15;;;;;;;4.43;4.03;;;;;;;28.93;42.06;94800.97;5116376;28;20964;-80
2022/06/20 07:56:46;;;;;;;4.47;4.07;;;;;;;28.32;41.79;94815.25;5116748;28;20439;-81
2022/06/20 07:59:19;;;;;;;6.00;4.60;;;;;;;28.39;42.26;94807.84;5116365;28;20432;-80
2022/06/20 08:01:53;;;;;;;3.97;3.67;;;;;;;28.68;42.96;94797.84;5116413;28;20481;-81
2022/06/20 08:04:27;;;;;;;5.90;3.60;;;;;;;29.02;41.48;94798.69;5116244;28;20458;-81
2022/06/20 08:06:57;;;;;;;7.20;3.73;;;;;;;29.22;39.80;94808.97;5116240;28;20473;-81
2022/06/20 08:09:33;;;;;;;4.00;3.60;;;;;;;29.11;40.05;94804.47;5116298;28;20467;-80
2022/06/20 08:12:04;;;;;;;7.37;4.53;;;;;;;29.21;38.96;94799.25;5116088;28;20462;-81
2022/06/20 08:14:39;;;;;;;5.93;4.43;;;;;;;29.36;38.93;94794.03;5116135;28;20482;-81
2022/06/20 08:17:08;;;;;;;7.97;3.90;;;;;;;29.51;38.24;94797.00;5080301;28;20506;-81
2022/06/20 08:19:38;;;;;;;7.77;3.70;;;;;;;29.48;38.19;94791.25;5116343;28;20451;-88
2022/06/20 08:22:11;;;;;;;5.77;4.03;;;;;;;29.63;38.27;94788.75;5116408;28;21122;-92
2022/06/20 08:24:46;;;;;;;21.27;3.90;;;;;;;29.74;38.91;94798.63;5116148;28;20458;-87
2022/06/20 08:27:21;;;;;;;7.60;3.80;;;;;;;29.15;37.83;94792.91;5115865;28;20444;-87
2022/06/20 08:29:53;;;;;;;5.90;3.70;;;;;;;28.90;38.24;94787.94;5116185;28;20918;-87
2022/06/20 08:32:32;;;;;;;4.00;3.60;;;;;;;28.90;38.37;94790.63;5116029;28;20443;-81
2022/06/20 08:35:09;;;;;;;6.53;3.50;;;;;;;28.89;39.30;94782.78;5115684;28;20444;-85
2022/06/20 08:37:41;;;;;;;6.60;3.80;;;;;;;28.89;40.35;94782.78;5115858;28;20453;-83
2022/06/20 08:40:36;;;;;;;4.57;3.83;;;;;;;29.02;40.17;94784.34;5115408;28;20475;-84
2022/06/20 08:43:22;;;;;;;5.50;3.90;;;;;;;28.93;38.54;94778.56;5115380;28;20475;-85
2022/06/20 08:46:16;;;;;;;3.87;3.57;;;;;;;29.03;38.70;94772.47;5115504;28;20450;-85
2022/06/20 08:49:35;;;;;;;3.90;3.50;;;;;;;28.27;32.59;94783.59;5115567;28;20436;-79
2022/06/20 08:52:35;;;;;;;7.80;3.07;;;;;;;28.59;33.98;94780.38;5072521;28;20453;-80
2022/06/20 08:55:41;;;;;;;2.67;2.47;;;;;;;28.32;32.46;94772.91;5072516;28;20478;-79
2022/06/20 08:58:17;;;;;;;4.40;3.37;;;;;;;28.43;33.91;94781.19;5012848;28;20444;-80
2022/06/20 09:00:49;;;;;;;3.00;2.80;;;;;;;28.57;33.67;94772.53;5012664;28;20485;-79
2022/06/20 09:03:45;;;;;;;3.03;2.83;;;;;;;28.55;33.43;94769.25;5011829;28;20830;-79
2022/06/20 09:06:27;;;;;;;3.13;2.93;;;;;;;28.76;33.39;94773.09;4963913;28;20452;-80
2022/06/20 09:09:19;;;;;;;2.70;2.50;;;;;;;28.79;34.94;94778.00;5012457;28;20452;-80
2022/06/20 09:12:02;;;;;;;2.57;2.37;;;;;;;28.74;32.18;94764.44;5012650;28;21050;-80
2022/06/20 09:14:48;;;;;;;3.23;3.00;;;;;;;28.95;34.64;94766.44;5012560;28;20444;-79
2022/06/20 09:17:21;;;;;;;2.90;2.70;;;;;;;29.16;33.67;94756.72;5012595;28;20816;-80
2022/06/20 09:19:58;;;;;;;2.90;2.60;;;;;;;29.00;33.75;94754.88;5012444;28;20444;-80
2022/06/20 09:22:38;;;;;;;2.80;2.60;;;;;;;28.61;32.86;94760.16;5012389;28;20843;-80
2022/06/20 09:25:22;;;;;;;4.27;3.07;;;;;;;28.62;30.88;94750.19;5019914;28;20940;-80
2022/06/20 09:28:01;;;;;;;2.70;2.50;;;;;;;28.50;30.87;94744.88;5052139;28;20450;-80
2022/06/20 09:30:39;;;;;;;2.93;2.73;;;;;;;27.92;30.27;94750.53;5018568;28;20525;-79
2022/06/20 09:33:44;;;;;;;2.70;2.50;;;;;;;27.75;34.04;94754.00;5051841;28;20446;-80
2022/06/20 09:36:33;;;;;;;2.77;2.37;;;;;;;27.43;33.08;94741.97;5114661;28;21016;-80
2022/06/20 09:39:15;;;;;;;2.63;2.43;;;;;;;27.24;33.08;94741.34;5114828;28;20948;-80
2022/06/20 09:41:49;;;;;;;2.60;2.40;;;;;;;27.36;34.38;94742.13;5114688;28;20849;-80
2022/06/20 09:44:23;;;;;;;2.67;2.47;;;;;;;26.94;30.89;94733.38;5114505;28;20447;-80
2022/06/20 09:47:09;;;;;;;2.83;2.50;;;;;;;27.21;31.92;94731.03;5114409;28;20446;-80
2022/06/20 09:49:43;;;;;;;2.93;2.73;;;;;;;27.28;32.83;94749.75;5114983;28;20440;-79
2022/06/20 09:52:18;;;;;;;2.73;2.53;;;;;;;27.11;34.34;94744.28;5114388;28;20461;-79
2022/06/20 09:54:54;;;;;;;3.60;2.50;;;;;;;26.99;32.09;94738.09;5114715;28;20565;-79
2022/06/20 09:57:35;;;;;;;2.63;2.47;;;;;;;26.73;33.08;94745.53;5114450;28;20443;-79
2022/06/20 10:00:07;;;;;;;4.57;2.30;;;;;;;26.83;34.37;94729.63;5114379;28;20451;-79
2022/06/20 10:02:47;;;;;;;3.63;2.20;;;;;;;26.86;31.51;94736.41;5114683;28;20482;-79
2022/06/20 10:05:21;;;;;;;2.80;2.60;;;;;;;26.95;33.37;94729.63;5114287;28;20443;-80
2022/06/20 10:07:57;;;;;;;2.83;2.37;;;;;;;27.15;32.56;94713.09;5114204;28;20809;-79
2022/06/20 10:10:32;;;;;;;3.57;2.53;;;;;;;27.18;31.89;94723.44;5114087;28;20435;-79
2022/06/20 10:13:10;;;;;;;2.20;2.10;;;;;;;27.21;32.06;94717.56;5114107;28;20952;-79
2022/06/20 10:15:44;;;;;;;2.87;2.67;;;;;;;27.25;32.64;94721.41;5114236;28;20435;-79
2022/06/20 10:18:25;;;;;;;2.30;2.10;;;;;;;27.27;31.97;94711.22;5114073;28;20443;-80
2022/06/20 10:21:01;;;;;;;5.70;3.30;;;;;;;27.36;31.49;94714.34;5114040;28;20443;-79
2022/06/20 10:23:58;;;;;;;3.20;2.40;;;;;;;27.48;30.66;94706.25;5113789;28;20543;-79
2022/06/20 10:26:43;;;;;;;2.57;2.30;;;;;;;27.40;30.95;94710.13;5114119;28;20439;-79
2022/06/20 10:29:22;;;;;;;4.03;2.53;;;;;;;27.30;29.92;94715.31;5114048;28;20431;-80
2022/06/20 10:31:58;;;;;;;2.47;2.27;;;;;;;27.34;31.60;94717.28;5113826;28;20447;-79
2022/06/20 10:34:38;;;;;;;2.60;2.40;;;;;;;27.21;29.19;94720.25;5078189;28;20439;-79
2022/06/20 10:37:19;;;;;;;2.37;2.27;;;;;;;27.29;28.36;94713.69;5113736;28;20436;-80
2022/06/20 10:39:56;;;;;;;2.50;2.40;;;;;;;27.43;30.54;94709.63;5113640;28;20447;-79
2022/06/20 10:42:32;;;;;;;2.73;2.50;;;;;;;27.60;28.88;94705.16;5113682;28;21004;-80
2022/06/20 10:45:22;;;;;;;2.43;2.23;;;;;;;27.73;28.76;94694.09;5113511;28;20531;-80
2022/06/20 10:48:07;;;;;;;4.33;2.73;;;;;;;27.88;29.10;94695.44;5113903;28;20435;-80
2022/06/20 10:50:42;;;;;;;2.80;2.50;;;;;;;28.03;28.91;94693.00;5113324;28;20432;-80
2022/06/20 10:53:19;;;;;;;2.53;2.43;;;;;;;28.01;29.52;94695.94;5113318;28;20447;-79
2022/06/20 10:55:54;;;;;;;2.43;2.33;;;;;;;28.14;27.59;94689.44;5113617;28;20451;-80
2022/06/20 10:58:43;;;;;;;2.23;2.13;;;;;;;28.17;26.89;94685.44;5113542;28;20636;-80
2022/06/20 11:01:17;;;;;;;2.50;2.30;;;;;;;28.18;28.11;94674.41;5113242;28;20427;-79
2022/06/20 11:04:16;;;;;;;2.50;2.30;;;;;;;28.21;28.27;94673.09;5112910;28;21007;-80
2022/06/20 11:07:07;;;;;;;2.70;2.33;;;;;;;28.20;28.40;94676.84;5113074;28;20960;-79
2022/06/20 11:09:43;;;;;;;2.17;2.07;;;;;;;28.19;27.61;94673.34;5113288;28;20443;-80
2022/06/20 11:12:27;;;;;;;2.47;2.27;;;;;;;27.95;26.04;94667.25;5078713;28;20443;-80
2022/06/20 11:15:03;;;;;;;6.50;2.43;;;;;;;27.76;27.47;94660.47;5113553;28;20447;-79
2022/06/20 11:17:38;;;;;;;2.50;2.30;;;;;;;27.80;27.91;94653.50;5112929;28;20444;-80
2022/06/20 11:20:19;;;;;;;2.13;2.03;;;;;;;27.66;26.73;94652.16;5112999;28;20443;-80
2022/06/20 11:22:53;;;;;;;2.33;2.23;;;;;;;27.86;28.41;94657.94;5112849;28;20514;-80
2022/06/20 11:25:30;;;;;;;2.50;2.30;;;;;;;27.94;28.79;94660.22;5077457;28;20444;-79
2022/06/20 11:28:36;;;;;;;2.40;2.30;;;;;;;28.02;28.58;94653.59;5115777;28;20443;-79
2022/06/20 11:31:10;;;;;;;2.73;2.53;;;;;;;27.70;27.99;94661.41;5034290;28;20483;-79
2022/06/20 11:34:04;;;;;;;2.17;1.97;;;;;;;27.64;27.50;94655.09;5034396;28;20529;-79
2022/06/20 11:36:49;;;;;;;2.80;2.57;;;;;;;27.76;28.09;94653.19;4991994;28;20451;-79
2022/06/20 11:39:42;;;;;;;4.27;2.67;;;;;;;27.95;26.83;94652.94;5034258;28;20439;-80
2022/06/20 11:42:37;;;;;;;3.23;2.50;;;;;;;28.10;27.48;94650.53;5017536;28;20455;-79
2022/06/20 11:45:20;;;;;;;2.30;2.20;;;;;;;28.21;27.50;94632.59;4914657;29;20834;-80
2022/06/20 11:48:25;;;;;;;2.43;2.23;;;;;;;28.35;27.91;94632.06;4955658;29;20453;-79
2022/06/20 11:51:01;;;;;;;2.30;2.10;;;;;;;28.31;26.66;94639.00;4917708;29;21090;-80
2022/06/20 11:53:45;;;;;;;2.33;2.13;;;;;;;28.29;26.74;94637.63;4917947;29;20452;-80
2022/06/20 11:56:23;;;;;;;2.30;2.10;;;;;;;28.29;28.59;94624.13;4917445;29;20463;-80
2022/06/20 11:59:18;;;;;;;2.87;2.40;;;;;;;28.30;30.97;94621.19;4917678;29;20444;-79
2022/06/20 12:01:52;;;;;;;2.57;2.17;;;;;;;28.23;29.92;94625.09;4917355;29;20440;-79
2022/06/20 12:04:26;;;;;;;2.37;2.17;;;;;;;28.30;29.02;94617.66;4917283;29;20483;-80
2022/06/20 12:07:00;;;;;;;2.27;2.17;;;;;;;28.37;29.72;94612.94;4919980;28;20457;-80
2022/06/20 12:09:35;;;;;;;2.83;2.63;;;;;;;28.49;30.25;94610.13;5013708;28;20463;-79
2022/06/20 12:12:18;;;;;;;7.07;3.03;;;;;;;28.51;29.72;94600.72;5014057;28;20479;-80
2022/06/20 12:14:56;;;;;;;11.37;2.40;;;;;;;28.20;30.33;94612.91;5013691;28;20455;-79
2022/06/20 12:17:31;;;;;;;2.70;2.50;;;;;;;28.01;28.46;94608.81;5013838;28;20451;-79